Bellewood, Mississippi
Current Conditions -  °F | °C
As of 12:53 AM on Saturday 20 Dec 2014 (Local Time) from KGLH Reporting Station
Overcast Overcast  
Wind Chill: 39°   Ceiling: 9000
Heat Index: 44°   Visibility: 9mi
Dew Point: 39°   Wind: 9mph
Humidity: 82%   Direction: 20°NNE
Pressure: 30.2"   Gusts: NA
Location:  33.234°N, 90.6166°W
Report Text: KGLH 200653Z AUTO 02008KT 9SM FEW060 OVC090 07/04 A3020 RMK AO2 SLP235 T00670039
Loading
Personal Weather Stations






























Interactive Weather Map New forecast layout! Learn more

10-Day Weather Forecast

Advertisements
Track Severe Weather on mobile